Time;durP1;ratioP1;P1;durP2;ratioP2;P2;SDS_P1;SDS_P2;PMS_P1;PMS_P2;Temp;Humidity;BMP_temperature;BMP_pressure;BME280_temperature;BME280_humidity;BME280_pressure;Samples;Min_cycle;Max_cycle;Signal;HPM_P1;HPM_P2
2021/06/06 00:01:18;;;;;;;45.17;30.80;;;;;;;;;;5048735;28;20084;-74
2021/06/06 00:03:47;;;;;;;46.70;28.50;;;;;;;;;;5044828;28;20049;-75
2021/06/06 00:06:15;;;;;;;41.25;29.65;;;;;;;;;;5054205;28;20041;-74
2021/06/06 00:08:42;;;;;;;47.65;28.83;;;;;;;;;;5051155;28;20132;-74
2021/06/06 00:11:10;;;;;;;38.47;28.05;;;;;;;;;;5045478;28;20045;-74
2021/06/06 00:13:39;;;;;;;42.38;28.30;;;;;;;;;;5044209;28;20045;-74
2021/06/06 00:16:07;;;;;;;40.25;28.20;;;;;;;;;;5051515;28;20059;-75
2021/06/06 00:18:33;;;;;;;43.03;28.73;;;;;;;;;;5049475;28;20037;-74
2021/06/06 00:21:00;;;;;;;42.20;28.38;;;;;;;;;;5045617;28;20042;-75
2021/06/06 00:23:29;;;;;;;43.17;28.55;;;;;;;;;;5050216;28;20053;-75
2021/06/06 00:25:56;;;;;;;39.92;29.65;;;;;;;;;;5052673;28;20050;-75
2021/06/06 00:28:22;;;;;;;45.58;29.27;;;;;;;;;;5051597;28;20507;-74
2021/06/06 00:30:49;;;;;;;51.13;30.95;;;;;;;;;;5049949;28;20044;-74
2021/06/06 00:33:15;;;;;;;46.78;29.95;;;;;;;;;;5052318;28;20086;-75
2021/06/06 00:35:41;;;;;;;45.15;30.30;;;;;;;;;;5050363;28;20037;-74
2021/06/06 00:38:08;;;;;;;49.67;31.35;;;;;;;;;;5039380;28;20033;-75
2021/06/06 00:40:36;;;;;;;44.10;29.60;;;;;;;;;;5052826;28;20117;-75
2021/06/06 00:43:04;;;;;;;44.50;30.52;;;;;;;;;;5052017;28;20111;-74
2021/06/06 00:45:31;;;;;;;51.28;32.10;;;;;;;;;;5041761;28;20052;-75
2021/06/06 00:47:57;;;;;;;51.70;33.42;;;;;;;;;;5053019;28;20124;-74
2021/06/06 00:50:28;;;;;;;44.95;32.80;;;;;;;;;;5044066;28;20512;-75
2021/06/06 00:52:56;;;;;;;49.85;31.70;;;;;;;;;;5055791;28;20040;-74
2021/06/06 00:55:23;;;;;;;45.50;32.80;;;;;;;;;;5053078;28;20040;-74
2021/06/06 00:57:50;;;;;;;45.08;33.15;;;;;;;;;;5055101;28;20037;-75
2021/06/06 01:00:24;;;;;;;48.05;34.60;;;;;;;;;;5051821;28;20094;-74
2021/06/06 01:02:50;;;;;;;;;;;;;;;;;;5050430;28;20265;-74
2021/06/06 01:05:25;;;;;;;53.35;35.67;;;;;;;;;;5050098;28;19935;-75
2021/06/06 01:07:51;;;;;;;52.17;33.13;;;;;;;;;;5047476;28;20045;-74
2021/06/06 01:10:17;;;;;;;55.47;34.78;;;;;;;;;;5052477;28;20079;-75
2021/06/06 01:12:48;;;;;;;48.38;33.17;;;;;;;;;;5051502;28;20090;-74
2021/06/06 01:15:18;;;;;;;55.13;36.05;;;;;;;;;;5053672;28;20048;-74
2021/06/06 01:17:52;;;;;;;54.42;36.10;;;;;;;;;;5055530;28;20052;-74
2021/06/06 01:20:28;;;;;;;61.45;36.97;;;;;;;;;;5053830;28;20644;-74
2021/06/06 01:23:00;;;;;;;56.88;35.95;;;;;;;;;;5050673;28;20040;-74
2021/06/06 01:25:31;;;;;;;51.00;35.22;;;;;;;;;;5048679;28;20352;-75
2021/06/06 01:28:03;;;;;;;58.30;34.95;;;;;;;;;;5052209;28;20043;-75
2021/06/06 01:30:32;;;;;;;58.53;33.75;;;;;;;;;;5050560;28;20047;-74
2021/06/06 01:33:02;;;;;;;71.45;35.92;;;;;;;;;;5054193;28;20032;-75
2021/06/06 01:35:31;;;;;;;56.15;34.72;;;;;;;;;;5041906;28;20411;-74
2021/06/06 01:38:04;;;;;;;61.47;37.08;;;;;;;;;;5050942;28;20119;-74
2021/06/06 01:40:32;;;;;;;64.32;37.25;;;;;;;;;;5054096;28;20060;-74
2021/06/06 01:43:00;;;;;;;56.33;36.65;;;;;;;;;;5048618;28;20067;-75
2021/06/06 01:45:30;;;;;;;57.25;37.35;;;;;;;;;;5048710;28;20055;-74
2021/06/06 01:47:58;;;;;;;62.20;38.30;;;;;;;;;;5049442;28;20558;-75
2021/06/06 01:50:26;;;;;;;68.90;39.58;;;;;;;;;;5049294;28;20157;-74
2021/06/06 01:52:53;;;;;;;63.53;39.15;;;;;;;;;;5047605;28;20040;-74
2021/06/06 01:55:21;;;;;;;67.03;40.28;;;;;;;;;;5049023;28;20045;-74
2021/06/06 01:57:49;;;;;;;59.83;37.13;;;;;;;;;;5052965;28;20045;-74
2021/06/06 02:00:18;;;;;;;76.20;38.03;;;;;;;;;;5049606;28;20412;-75
2021/06/06 02:02:45;;;;;;;63.90;36.78;;;;;;;;;;5039794;28;20049;-74
2021/06/06 02:05:14;;;;;;;65.63;36.65;;;;;;;;;;5049003;28;20056;-75
2021/06/06 02:07:41;;;;;;;63.72;37.17;;;;;;;;;;5055649;28;20041;-74
2021/06/06 02:10:12;;;;;;;66.05;38.20;;;;;;;;;;5051466;28;20484;-75
2021/06/06 02:12:39;;;;;;;59.65;34.35;;;;;;;;;;5040771;28;20469;-74
2021/06/06 02:15:09;;;;;;;70.65;37.65;;;;;;;;;;5055110;28;20133;-75
2021/06/06 02:17:35;;;;;;;64.53;35.03;;;;;;;;;;5055033;28;20049;-75
2021/06/06 02:20:04;;;;;;;64.03;33.25;;;;;;;;;;5050053;28;20048;-75
2021/06/06 02:22:31;;;;;;;61.00;33.53;;;;;;;;;;5052113;28;20037;-74
2021/06/06 02:24:58;;;;;;;52.85;32.97;;;;;;;;;;5051111;28;20044;-75
2021/06/06 02:27:28;;;;;;;65.88;34.90;;;;;;;;;;5049117;28;20392;-74
2021/06/06 02:29:59;;;;;;;56.30;32.00;;;;;;;;;;5048535;28;20044;-75
2021/06/06 02:32:38;;;;;;;54.30;33.08;;;;;;;;;;5050311;28;20040;-74
2021/06/06 02:35:09;;;;;;;59.30;33.88;;;;;;;;;;5047808;28;20400;-75
2021/06/06 02:37:41;;;;;;;54.45;34.15;;;;;;;;;;5050346;28;20064;-75
2021/06/06 02:40:10;;;;;;;55.97;32.70;;;;;;;;;;5046225;28;20044;-75
2021/06/06 02:42:41;;;;;;;56.42;32.95;;;;;;;;;;5051715;28;20065;-74
2021/06/06 02:45:09;;;;;;;64.35;35.20;;;;;;;;;;5030552;28;20067;-74
2021/06/06 02:47:37;;;;;;;62.15;34.72;;;;;;;;;;5047089;28;20041;-74
2021/06/06 02:50:08;;;;;;;66.47;35.63;;;;;;;;;;5048137;28;20036;-75
2021/06/06 02:52:39;;;;;;;64.75;36.20;;;;;;;;;;5046524;28;20044;-75
2021/06/06 02:55:09;;;;;;;66.93;36.47;;;;;;;;;;5050532;28;20170;-75
2021/06/06 02:57:36;;;;;;;71.68;36.50;;;;;;;;;;5051757;28;20562;-74
2021/06/06 03:00:10;;;;;;;75.22;36.55;;;;;;;;;;5050487;28;20040;-74
2021/06/06 03:02:39;;;;;;;66.97;33.95;;;;;;;;;;5054166;28;20037;-74
2021/06/06 03:05:07;;;;;;;62.42;33.35;;;;;;;;;;5049454;28;20184;-74
2021/06/06 03:07:37;;;;;;;67.72;36.97;;;;;;;;;;5050834;28;20067;-74
2021/06/06 03:10:05;;;;;;;72.55;36.88;;;;;;;;;;5053464;28;20083;-74
2021/06/06 03:12:31;;;;;;;64.75;36.13;;;;;;;;;;5046628;28;20036;-74
2021/06/06 03:14:59;;;;;;;73.80;37.25;;;;;;;;;;5048827;28;20040;-74
2021/06/06 03:17:28;;;;;;;78.28;37.45;;;;;;;;;;5054430;28;20037;-74
2021/06/06 03:19:57;;;;;;;76.72;37.65;;;;;;;;;;5048731;28;20045;-74
2021/06/06 03:22:26;;;;;;;86.47;37.97;;;;;;;;;;5046252;28;20044;-74
2021/06/06 03:24:53;;;;;;;77.35;38.42;;;;;;;;;;5046480;28;20053;-74
2021/06/06 03:27:22;;;;;;;89.28;36.80;;;;;;;;;;5046934;28;20097;-75
2021/06/06 03:29:53;;;;;;;104.60;40.30;;;;;;;;;;5046800;28;20048;-75
2021/06/06 03:32:21;;;;;;;83.05;35.20;;;;;;;;;;5048225;28;20105;-74
2021/06/06 03:34:49;;;;;;;124.80;41.35;;;;;;;;;;5049199;28;20184;-74
2021/06/06 03:37:16;;;;;;;103.93;37.15;;;;;;;;;;5049331;28;20147;-74
2021/06/06 03:39:42;;;;;;;145.93;41.45;;;;;;;;;;5049463;28;20049;-74
2021/06/06 03:42:09;;;;;;;141.75;42.38;;;;;;;;;;5053076;28;20047;-74
2021/06/06 03:44:35;;;;;;;110.30;38.80;;;;;;;;;;5046901;28;20112;-74
2021/06/06 03:47:02;;;;;;;102.10;36.03;;;;;;;;;;5050518;28;20402;-74
2021/06/06 03:49:28;;;;;;;85.13;33.78;;;;;;;;;;5045268;28;20044;-74
2021/06/06 03:51:54;;;;;;;83.00;32.15;;;;;;;;;;5047837;28;20076;-74
2021/06/06 03:54:21;;;;;;;73.78;29.90;;;;;;;;;;5047779;28;20040;-74
2021/06/06 03:56:48;;;;;;;71.25;29.88;;;;;;;;;;5051225;28;20047;-74
2021/06/06 03:59:17;;;;;;;71.18;30.33;;;;;;;;;;5046652;28;20045;-74
2021/06/06 04:01:44;;;;;;;89.38;35.03;;;;;;;;;;5047047;28;20453;-74
2021/06/06 04:04:11;;;;;;;101.32;36.22;;;;;;;;;;5035174;28;20060;-74
2021/06/06 04:06:37;;;;;;;82.80;34.85;;;;;;;;;;5051370;28;20087;-74
2021/06/06 04:09:05;;;;;;;69.53;31.25;;;;;;;;;;5054538;28;20403;-74
2021/06/06 04:11:31;;;;;;;69.32;33.17;;;;;;;;;;5056080;28;20122;-74
2021/06/06 04:13:58;;;;;;;62.13;31.52;;;;;;;;;;5049561;28;20049;-74
2021/06/06 04:16:24;;;;;;;59.70;31.35;;;;;;;;;;5053327;28;20512;-74
2021/06/06 04:18:50;;;;;;;52.42;31.88;;;;;;;;;;5053529;28;20041;-74
2021/06/06 04:21:19;;;;;;;51.78;30.33;;;;;;;;;;5050355;28;20068;-75
2021/06/06 04:23:45;;;;;;;46.92;30.27;;;;;;;;;;5054020;28;20128;-74
2021/06/06 04:26:12;;;;;;;48.95;29.95;;;;;;;;;;5053582;28;20462;-74
2021/06/06 04:28:38;;;;;;;52.22;30.23;;;;;;;;;;5050623;28;20149;-74
2021/06/06 04:31:07;;;;;;;59.40;28.73;;;;;;;;;;5049345;28;20045;-74
2021/06/06 04:33:34;;;;;;;65.60;30.45;;;;;;;;;;5052254;28;20085;-74
2021/06/06 04:36:01;;;;;;;71.80;30.40;;;;;;;;;;5055571;28;20067;-74
2021/06/06 04:38:29;;;;;;;73.05;28.30;;;;;;;;;;5050932;28;20105;-74
2021/06/06 04:40:57;;;;;;;68.38;26.17;;;;;;;;;;5054027;28;20450;-74
2021/06/06 04:43:23;;;;;;;58.72;22.13;;;;;;;;;;5050022;28;20041;-74
2021/06/06 04:45:50;;;;;;;51.95;20.83;;;;;;;;;;5057626;28;20092;-74
2021/06/06 04:48:19;;;;;;;49.90;21.25;;;;;;;;;;5057259;28;20097;-74
2021/06/06 04:50:47;;;;;;;66.25;22.02;;;;;;;;;;5050264;28;20057;-74
2021/06/06 04:53:14;;;;;;;52.58;21.92;;;;;;;;;;5051145;28;20180;-74
2021/06/06 04:55:41;;;;;;;51.95;20.50;;;;;;;;;;5041588;28;20063;-74
2021/06/06 04:58:07;;;;;;;43.35;21.40;;;;;;;;;;5048624;28;20040;-75
2021/06/06 05:00:40;;;;;;;52.30;23.05;;;;;;;;;;5050693;28;20048;-74
2021/06/06 05:03:07;;;;;;;47.95;20.27;;;;;;;;;;5057375;28;20396;-74
2021/06/06 05:05:33;;;;;;;55.55;21.60;;;;;;;;;;5052722;28;20052;-74
2021/06/06 05:08:00;;;;;;;73.78;25.20;;;;;;;;;;5052092;28;20037;-74
2021/06/06 05:10:28;;;;;;;60.22;24.40;;;;;;;;;;5050577;28;20040;-74
2021/06/06 05:12:54;;;;;;;48.35;21.73;;;;;;;;;;5041557;28;20087;-74
2021/06/06 05:15:21;;;;;;;54.55;24.73;;;;;;;;;;5053310;28;20041;-74
2021/06/06 05:17:48;;;;;;;45.65;21.48;;;;;;;;;;5053444;28;20048;-74
2021/06/06 05:20:16;;;;;;;44.35;20.70;;;;;;;;;;5050277;28;20041;-74
2021/06/06 05:22:43;;;;;;;45.78;20.23;;;;;;;;;;5048746;28;20953;-73
2021/06/06 05:25:09;;;;;;;49.10;21.95;;;;;;;;;;5052979;28;20116;-81
2021/06/06 05:27:36;;;;;;;42.75;19.27;;;;;;;;;;5051583;28;20033;-75
2021/06/06 05:30:04;;;;;;;55.47;20.90;;;;;;;;;;5047435;28;20532;-74
2021/06/06 05:32:31;;;;;;;48.45;20.75;;;;;;;;;;5048907;28;20063;-74
2021/06/06 05:34:57;;;;;;;54.15;23.17;;;;;;;;;;5048037;28;20048;-74
2021/06/06 05:37:24;;;;;;;51.05;24.35;;;;;;;;;;5036961;28;20454;-74
2021/06/06 05:39:50;;;;;;;48.13;23.98;;;;;;;;;;5055373;28;20132;-74
2021/06/06 05:42:16;;;;;;;54.15;25.77;;;;;;;;;;5047210;28;20370;-74
2021/06/06 05:44:43;;;;;;;49.20;26.58;;;;;;;;;;5049930;28;20049;-74
2021/06/06 05:47:10;;;;;;;52.25;26.92;;;;;;;;;;5048917;28;20354;-74
2021/06/06 05:49:36;;;;;;;56.17;28.13;;;;;;;;;;5041087;28;20526;-74
2021/06/06 05:52:03;;;;;;;46.83;26.92;;;;;;;;;;5058673;28;20457;-74
2021/06/06 05:54:29;;;;;;;45.90;26.40;;;;;;;;;;5054327;28;20555;-74
2021/06/06 05:56:55;;;;;;;47.33;26.95;;;;;;;;;;5046144;28;20052;-74
2021/06/06 05:59:22;;;;;;;48.10;25.65;;;;;;;;;;5060931;28;20039;-74
2021/06/06 06:01:49;;;;;;;47.65;27.33;;;;;;;;;;5057226;28;20041;-75
2021/06/06 06:04:15;;;;;;;48.13;25.63;;;;;;;;;;5058423;28;20041;-74
2021/06/06 06:06:42;;;;;;;37.53;24.48;;;;;;;;;;5050813;28;20044;-74
2021/06/06 06:09:09;;;;;;;40.70;25.20;;;;;;;;;;5052190;28;20060;-74
2021/06/06 06:11:35;;;;;;;50.88;27.13;;;;;;;;;;5052931;28;20053;-74
2021/06/06 06:14:02;;;;;;;47.50;27.88;;;;;;;;;;5049409;28;20056;-73
2021/06/06 06:16:29;;;;;;;51.85;27.67;;;;;;;;;;5052730;28;20044;-74
2021/06/06 06:18:57;;;;;;;44.72;26.00;;;;;;;;;;5056091;28;20091;-74
2021/06/06 06:21:25;;;;;;;49.45;25.98;;;;;;;;;;5053449;28;20043;-74
2021/06/06 06:23:51;;;;;;;55.03;28.45;;;;;;;;;;5045346;28;20391;-74
2021/06/06 06:26:18;;;;;;;44.03;26.58;;;;;;;;;;5058226;28;20410;-74
2021/06/06 06:29:05;;;;;;;48.17;27.27;;;;;;;;;;5032505;28;20053;-74
2021/06/06 06:31:31;;;;;;;42.88;25.75;;;;;;;;;;5054232;28;20369;-74
2021/06/06 06:34:00;;;;;;;42.03;25.52;;;;;;;;;;5051541;28;20445;-74
2021/06/06 06:36:26;;;;;;;47.92;26.08;;;;;;;;;;5054200;28;20098;-74
2021/06/06 06:38:53;;;;;;;44.97;25.73;;;;;;;;;;5051383;28;20127;-74
2021/06/06 06:41:20;;;;;;;44.67;26.00;;;;;;;;;;5055383;28;20063;-74
2021/06/06 06:43:47;;;;;;;42.58;25.65;;;;;;;;;;5052580;28;20120;-74
2021/06/06 06:46:13;;;;;;;44.38;25.80;;;;;;;;;;5059810;28;20412;-74
2021/06/06 06:48:40;;;;;;;45.10;23.85;;;;;;;;;;5054717;28;20063;-74
2021/06/06 06:51:07;;;;;;;40.97;24.88;;;;;;;;;;5051553;28;20065;-74
2021/06/06 06:53:33;;;;;;;43.55;25.13;;;;;;;;;;5058219;28;20124;-74
2021/06/06 06:56:00;;;;;;;37.33;23.73;;;;;;;;;;5055105;28;20045;-74
2021/06/06 06:58:28;;;;;;;46.33;25.38;;;;;;;;;;5052623;28;20033;-74
2021/06/06 07:00:55;;;;;;;47.05;25.80;;;;;;;;;;5055882;28;20065;-74
2021/06/06 07:03:24;;;;;;;49.13;25.88;;;;;;;;;;5049922;28;20381;-74
2021/06/06 07:05:50;;;;;;;44.40;24.67;;;;;;;;;;5053010;28;20047;-74
2021/06/06 07:08:18;;;;;;;45.70;26.98;;;;;;;;;;5056416;28;20075;-74
2021/06/06 07:10:50;;;;;;;43.03;26.23;;;;;;;;;;5053931;28;20048;-74
2021/06/06 07:13:16;;;;;;;41.95;24.70;;;;;;;;;;5051364;28;20484;-74
2021/06/06 07:15:43;;;;;;;39.65;22.83;;;;;;;;;;5056104;28;20115;-74
2021/06/06 07:18:11;;;;;;;41.25;24.10;;;;;;;;;;5058577;28;20048;-74
2021/06/06 07:20:39;;;;;;;38.22;23.00;;;;;;;;;;5048047;28;20157;-74
2021/06/06 07:23:06;;;;;;;39.20;22.00;;;;;;;;;;5055457;28;20036;-74
2021/06/06 07:25:33;;;;;;;36.70;22.70;;;;;;;;;;5055499;28;20056;-74
2021/06/06 07:27:59;;;;;;;40.55;23.80;;;;;;;;;;5052380;28;20062;-74
2021/06/06 07:30:29;;;;;;;46.53;23.63;;;;;;;;;;5054412;28;20044;-74
2021/06/06 07:32:56;;;;;;;40.30;22.73;;;;;;;;;;5051261;28;20152;-74
2021/06/06 07:35:24;;;;;;;36.28;22.08;;;;;;;;;;5052211;28;20071;-74
2021/06/06 07:37:54;;;;;;;41.47;23.90;;;;;;;;;;5050737;28;20538;-74
2021/06/06 07:40:25;;;;;;;43.50;24.48;;;;;;;;;;5053863;28;20044;-74
2021/06/06 07:42:51;;;;;;;36.13;22.33;;;;;;;;;;5062882;28;20163;-74
2021/06/06 07:45:20;;;;;;;34.92;21.70;;;;;;;;;;5059695;28;20044;-74
2021/06/06 07:47:46;;;;;;;39.15;22.58;;;;;;;;;;5059615;28;20076;-74
2021/06/06 07:50:15;;;;;;;32.80;20.95;;;;;;;;;;5059986;28;20491;-74
2021/06/06 07:52:42;;;;;;;44.13;21.85;;;;;;;;;;5055332;28;20082;-74
2021/06/06 07:55:10;;;;;;;36.65;22.00;;;;;;;;;;5060582;28;20102;-74
2021/06/06 07:57:37;;;;;;;39.70;21.38;;;;;;;;;;5042969;28;20047;-74
2021/06/06 08:00:05;;;;;;;40.70;19.73;;;;;;;;;;5056450;28;20116;-74
2021/06/06 08:02:31;;;;;;;41.38;20.40;;;;;;;;;;5055415;28;20511;-74
2021/06/06 08:04:58;;;;;;;33.30;20.63;;;;;;;;;;5052650;28;20032;-74
2021/06/06 08:07:32;;;;;;;40.85;20.65;;;;;;;;;;5056734;28;20082;-74
2021/06/06 08:09:59;;;;;;;33.15;19.75;;;;;;;;;;5061868;28;20036;-74
2021/06/06 08:12:26;;;;;;;36.63;19.70;;;;;;;;;;5053691;28;20056;-74
2021/06/06 08:14:54;;;;;;;35.15;18.88;;;;;;;;;;5051929;28;20053;-73
2021/06/06 08:17:21;;;;;;;38.97;19.83;;;;;;;;;;5052859;28;20422;-74
2021/06/06 08:19:47;;;;;;;36.92;19.67;;;;;;;;;;5052743;28;20399;-74
2021/06/06 08:22:14;;;;;;;37.05;19.02;;;;;;;;;;5052364;28;20036;-76
2021/06/06 08:24:41;;;;;;;35.42;18.50;;;;;;;;;;5038384;28;20393;-74
2021/06/06 08:27:07;;;;;;;35.88;19.20;;;;;;;;;;5056681;28;20095;-74
2021/06/06 08:29:34;;;;;;;42.03;20.77;;;;;;;;;;5053415;28;20143;-74
2021/06/06 08:32:00;;;;;;;38.10;17.38;;;;;;;;;;5056728;28;20112;-74
2021/06/06 08:34:27;;;;;;;42.15;20.02;;;;;;;;;;5051967;28;20488;-74
2021/06/06 08:36:57;;;;;;;32.97;19.38;;;;;;;;;;5055600;28;20064;-74
2021/06/06 08:39:25;;;;;;;34.70;19.15;;;;;;;;;;5051466;28;20052;-74
2021/06/06 08:41:54;;;;;;;35.03;18.13;;;;;;;;;;5055167;28;20119;-74
2021/06/06 08:44:25;;;;;;;35.08;19.40;;;;;;;;;;5046085;28;20128;-74
2021/06/06 08:47:02;;;;;;;38.03;18.02;;;;;;;;;;5050485;28;20109;-74
2021/06/06 08:49:30;;;;;;;30.67;18.10;;;;;;;;;;5050021;28;20048;-74
2021/06/06 08:52:10;;;;;;;35.78;18.35;;;;;;;;;;5050084;28;20049;-74
2021/06/06 08:54:39;;;;;;;36.05;18.65;;;;;;;;;;5055864;28;20138;-74
2021/06/06 08:57:15;;;;;;;31.98;17.88;;;;;;;;;;5055867;28;20421;-74
2021/06/06 08:59:46;;;;;;;33.05;18.23;;;;;;;;;;5054132;28;20045;-74
2021/06/06 09:02:15;;;;;;;34.70;17.98;;;;;;;;;;5053145;28;20225;-74
2021/06/06 09:04:42;;;;;;;27.23;16.55;;;;;;;;;;5050541;28;20078;-74
2021/06/06 09:07:13;;;;;;;35.22;17.42;;;;;;;;;;5051423;28;20178;-74
2021/06/06 09:09:41;;;;;;;26.02;15.52;;;;;;;;;;5050626;28;20053;-74
2021/06/06 09:12:09;;;;;;;31.65;16.83;;;;;;;;;;5050104;28;20040;-74
2021/06/06 09:14:35;;;;;;;31.08;15.82;;;;;;;;;;5050895;28;20093;-74
2021/06/06 09:17:10;;;;;;;32.97;15.13;;;;;;;;;;5053020;28;20048;-74
2021/06/06 09:19:43;;;;;;;27.45;14.95;;;;;;;;;;5056701;28;20045;-74
2021/06/06 09:22:10;;;;;;;19.67;12.60;;;;;;;;;;5053376;28;20141;-73
2021/06/06 09:24:39;;;;;;;20.60;13.10;;;;;;;;;;5051622;28;20041;-74
2021/06/06 09:27:07;;;;;;;22.92;13.40;;;;;;;;;;5056982;28;20065;-74
2021/06/06 09:29:33;;;;;;;29.10;13.65;;;;;;;;;;5061977;28;20127;-74
2021/06/06 09:32:07;;;;;;;25.42;12.70;;;;;;;;;;5052968;28;20098;-73
2021/06/06 09:34:34;;;;;;;22.83;12.38;;;;;;;;;;5052507;28;20064;-74
2021/06/06 09:37:04;;;;;;;21.58;11.25;;;;;;;;;;5059702;28;20036;-73
2021/06/06 09:39:34;;;;;;;19.38;11.27;;;;;;;;;;5055715;28;20037;-74
2021/06/06 09:42:00;;;;;;;22.10;10.05;;;;;;;;;;5061699;28;20044;-76
2021/06/06 09:44:29;;;;;;;78.25;18.67;;;;;;;;;;5051417;28;20076;-75
2021/06/06 09:47:00;;;;;;;25.55;10.10;;;;;;;;;;5052994;28;20440;-76
2021/06/06 09:49:32;;;;;;;22.00;9.40;;;;;;;;;;5056696;28;20037;-75
2021/06/06 09:52:11;;;;;;;28.45;11.95;;;;;;;;;;5057380;28;20052;-75
2021/06/06 09:54:38;;;;;;;15.18;9.27;;;;;;;;;;5050648;28;20121;-75
2021/06/06 09:57:17;;;;;;;20.63;9.20;;;;;;;;;;5056206;28;20055;-75
2021/06/06 09:59:44;;;;;;;22.00;9.93;;;;;;;;;;5062450;28;20476;-75
2021/06/06 10:02:12;;;;;;;18.88;8.98;;;;;;;;;;5054516;28;20039;-75
2021/06/06 10:04:39;;;;;;;16.33;9.57;;;;;;;;;;5054674;28;20044;-75
2021/06/06 10:07:10;;;;;;;18.13;8.60;;;;;;;;;;5054259;28;20055;-75
2021/06/06 10:09:39;;;;;;;15.07;8.73;;;;;;;;;;5058873;28;20119;-75
2021/06/06 10:12:11;;;;;;;18.92;8.93;;;;;;;;;;5052657;28;20056;-75
2021/06/06 10:14:43;;;;;;;17.95;8.77;;;;;;;;;;5060599;28;20097;-75
2021/06/06 10:17:12;;;;;;;18.45;8.38;;;;;;;;;;5063821;28;20190;-75
2021/06/06 10:19:41;;;;;;;17.10;9.13;;;;;;;;;;5056921;28;20056;-75
2021/06/06 10:22:22;;;;;;;13.52;8.45;;;;;;;;;;5051943;28;20029;-75
2021/06/06 10:24:54;;;;;;;19.77;8.88;;;;;;;;;;5065559;28;20166;-75
2021/06/06 10:27:24;;;;;;;20.15;8.68;;;;;;;;;;5065004;28;20547;-75
2021/06/06 10:29:55;;;;;;;23.30;9.27;;;;;;;;;;5063888;28;20036;-75
2021/06/06 10:32:27;;;;;;;16.30;8.55;;;;;;;;;;5065655;28;20488;-75
2021/06/06 10:34:57;;;;;;;13.43;7.68;;;;;;;;;;5062195;28;20096;-75
2021/06/06 10:37:26;;;;;;;19.65;9.13;;;;;;;;;;5058714;28;20449;-75
2021/06/06 10:39:54;;;;;;;17.92;9.00;;;;;;;;;;5058027;28;20094;-75
2021/06/06 10:42:35;;;;;;;16.55;9.48;;;;;;;;;;5052565;28;20045;-76
2021/06/06 10:45:06;;;;;;;23.05;8.93;;;;;;;;;;5056179;28;20434;-75
2021/06/06 10:47:52;;;;;;;18.15;9.02;;;;;;;;;;5055124;28;20157;-73
2021/06/06 10:50:34;;;;;;;21.08;8.88;;;;;;;;;;5055862;28;20041;-73
2021/06/06 10:53:07;;;;;;;17.23;9.25;;;;;;;;;;5057780;28;20992;-73
2021/06/06 10:55:35;;;;;;;20.83;9.07;;;;;;;;;;5059028;28;20136;-73
2021/06/06 10:58:16;;;;;;;19.15;9.85;;;;;;;;;;5055125;28;20048;-73
2021/06/06 11:00:54;;;;;;;20.17;9.80;;;;;;;;;;5059909;28;20110;-73
2021/06/06 11:03:22;;;;;;;19.42;8.93;;;;;;;;;;5062968;28;20047;-73
2021/06/06 11:05:50;;;;;;;18.05;10.32;;;;;;;;;;5063441;28;20040;-73
2021/06/06 11:08:18;;;;;;;18.52;10.20;;;;;;;;;;5056787;28;20087;-73
2021/06/06 11:10:44;;;;;;;22.35;11.38;;;;;;;;;;5060232;28;20437;-74
2021/06/06 11:13:14;;;;;;;17.30;9.75;;;;;;;;;;5067288;28;20045;-74
2021/06/06 11:15:44;;;;;;;18.20;9.95;;;;;;;;;;5066062;28;20047;-75
2021/06/06 11:18:11;;;;;;;26.27;11.32;;;;;;;;;;5060530;28;20044;-74
2021/06/06 11:20:50;;;;;;;20.10;11.02;;;;;;;;;;5060924;28;20476;-74
2021/06/06 11:23:20;;;;;;;18.48;10.00;;;;;;;;;;5039702;28;20043;-74
2021/06/06 11:25:49;;;;;;;20.65;10.45;;;;;;;;;;5035549;28;20053;-74
2021/06/06 11:28:27;;;;;;;20.15;11.30;;;;;;;;;;5037332;28;20091;-74
2021/06/06 11:30:54;;;;;;;18.48;10.00;;;;;;;;;;5041381;28;20095;-74
2021/06/06 11:33:35;;;;;;;19.25;10.10;;;;;;;;;;5046571;28;20053;-74
2021/06/06 11:36:03;;;;;;;19.48;10.45;;;;;;;;;;5051559;28;20075;-74
2021/06/06 11:38:36;;;;;;;22.52;11.55;;;;;;;;;;5052911;28;20433;-74
2021/06/06 11:41:05;;;;;;;22.73;11.95;;;;;;;;;;5052652;28;20133;-74
2021/06/06 11:43:35;;;;;;;23.80;12.63;;;;;;;;;;5054765;28;20044;-74
2021/06/06 11:46:13;;;;;;;23.40;12.52;;;;;;;;;;5053770;28;20051;-75
2021/06/06 11:48:45;;;;;;;19.73;11.55;;;;;;;;;;5050520;28;20033;-75
2021/06/06 11:51:16;;;;;;;21.13;11.80;;;;;;;;;;5056783;28;20064;-74
2021/06/06 11:53:44;;;;;;;19.02;10.38;;;;;;;;;;5058481;28;20059;-74
2021/06/06 11:56:23;;;;;;;17.77;10.95;;;;;;;;;;5056937;28;20499;-74
2021/06/06 11:58:57;;;;;;;16.48;9.70;;;;;;;;;;5064343;28;20048;-75
2021/06/06 12:01:25;;;;;;;16.33;10.48;;;;;;;;;;5048583;28;20127;-75
2021/06/06 12:03:53;;;;;;;19.67;10.05;;;;;;;;;;5037069;28;20071;-74
2021/06/06 12:06:20;;;;;;;17.23;9.27;;;;;;;;;;5055812;28;20037;-74
2021/06/06 12:08:46;;;;;;;18.33;8.77;;;;;;;;;;5061218;28;20392;-75
2021/06/06 12:11:15;;;;;;;19.60;9.82;;;;;;;;;;5045063;28;20064;-74
2021/06/06 12:13:42;;;;;;;18.77;9.07;;;;;;;;;;5057142;28;20120;-75
2021/06/06 12:16:20;;;;;;;16.33;8.90;;;;;;;;;;5047687;28;20037;-75
2021/06/06 12:18:48;;;;;;;20.95;8.18;;;;;;;;;;5052459;28;20182;-75
2021/06/06 12:21:17;;;;;;;15.13;8.90;;;;;;;;;;5056722;28;20048;-75
2021/06/06 12:23:46;;;;;;;16.13;7.80;;;;;;;;;;5063399;28;20128;-74
2021/06/06 12:26:14;;;;;;;15.32;9.20;;;;;;;;;;5046229;28;20097;-75
2021/06/06 12:28:43;;;;;;;16.13;7.95;;;;;;;;;;5061626;28;20032;-75
2021/06/06 12:31:19;;;;;;;14.50;7.90;;;;;;;;;;5058609;28;20135;-75
2021/06/06 12:33:45;;;;;;;13.85;7.45;;;;;;;;;;5057455;28;20056;-75
2021/06/06 12:36:15;;;;;;;19.35;9.70;;;;;;;;;;5055656;28;20507;-75
2021/06/06 12:38:44;;;;;;;19.73;9.40;;;;;;;;;;5056453;28;20127;-75
2021/06/06 12:41:11;;;;;;;19.92;8.75;;;;;;;;;;5051076;28;20047;-75
2021/06/06 12:43:41;;;;;;;13.90;7.88;;;;;;;;;;5063544;28;20064;-75
2021/06/06 12:46:09;;;;;;;15.25;7.07;;;;;;;;;;5058560;28;20048;-75
2021/06/06 12:48:37;;;;;;;14.18;7.20;;;;;;;;;;5057523;28;20048;-75
2021/06/06 12:51:15;;;;;;;15.70;7.35;;;;;;;;;;5059458;28;20075;-75
2021/06/06 12:53:43;;;;;;;12.68;6.63;;;;;;;;;;5053387;28;20044;-75
2021/06/06 12:56:11;;;;;;;12.23;6.65;;;;;;;;;;5060515;28;20037;-75
2021/06/06 12:58:38;;;;;;;11.02;5.53;;;;;;;;;;5061908;28;20117;-74
2021/06/06 13:01:10;;;;;;;14.52;6.72;;;;;;;;;;5065279;28;20123;-76
2021/06/06 13:03:39;;;;;;;12.52;6.60;;;;;;;;;;5045007;28;20033;-75
2021/06/06 13:06:15;;;;;;;12.85;6.65;;;;;;;;;;5048899;28;20122;-74
2021/06/06 13:08:42;;;;;;;15.45;8.00;;;;;;;;;;5052982;28;20051;-75
2021/06/06 13:11:12;;;;;;;20.85;9.18;;;;;;;;;;5055312;28;20700;-75
2021/06/06 13:13:45;;;;;;;17.77;8.95;;;;;;;;;;5053685;28;20033;-74
2021/06/06 13:16:17;;;;;;;19.98;7.80;;;;;;;;;;5057431;28;20113;-75
2021/06/06 13:18:44;;;;;;;10.57;5.82;;;;;;;;;;5043990;28;20475;-74
2021/06/06 13:21:15;;;;;;;15.60;6.53;;;;;;;;;;5041573;28;20048;-75
2021/06/06 13:23:42;;;;;;;12.73;6.43;;;;;;;;;;5039008;28;20060;-74
2021/06/06 13:26:10;;;;;;;10.23;5.68;;;;;;;;;;5037434;28;20171;-75
2021/06/06 13:28:38;;;;;;;14.52;7.03;;;;;;;;;;5057241;28;20541;-75
2021/06/06 13:31:18;;;;;;;14.75;6.00;;;;;;;;;;5056534;28;20048;-75
2021/06/06 13:33:44;;;;;;;16.00;5.85;;;;;;;;;;5054463;28;20041;-75
2021/06/06 13:36:12;;;;;;;11.80;4.88;;;;;;;;;;5056636;28;20499;-75
2021/06/06 13:38:39;;;;;;;11.85;4.65;;;;;;;;;;5052726;28;20420;-75
2021/06/06 13:41:07;;;;;;;12.18;4.50;;;;;;;;;;5063926;28;20052;-75
2021/06/06 13:43:34;;;;;;;13.95;5.57;;;;;;;;;;5064413;28;20044;-75
2021/06/06 13:46:01;;;;;;;11.45;4.68;;;;;;;;;;5060209;28;20117;-75
2021/06/06 13:48:28;;;;;;;10.95;4.40;;;;;;;;;;5049210;28;20447;-75
2021/06/06 13:50:54;;;;;;;8.82;3.90;;;;;;;;;;5047346;28;20041;-75
2021/06/06 13:53:25;;;;;;;7.75;3.20;;;;;;;;;;5052983;28;20496;-75
2021/06/06 13:55:51;;;;;;;8.05;3.38;;;;;;;;;;5058172;28;20044;-75
2021/06/06 13:58:18;;;;;;;8.90;3.20;;;;;;;;;;5056018;28;20395;-75
2021/06/06 14:00:45;;;;;;;8.13;3.53;;;;;;;;;;5047763;28;20083;-75
2021/06/06 14:03:14;;;;;;;7.35;3.50;;;;;;;;;;5065124;28;20480;-75
2021/06/06 14:05:41;;;;;;;9.52;3.33;;;;;;;;;;5052817;28;20067;-75
2021/06/06 14:08:08;;;;;;;10.13;3.83;;;;;;;;;;5055907;28;20036;-75
2021/06/06 14:10:38;;;;;;;8.02;3.78;;;;;;;;;;5058724;28;20036;-75
2021/06/06 14:13:05;;;;;;;7.60;3.30;;;;;;;;;;5059802;28;20115;-75
2021/06/06 14:15:31;;;;;;;7.60;2.67;;;;;;;;;;5057351;28;20048;-75
2021/06/06 14:17:58;;;;;;;8.75;3.22;;;;;;;;;;5057924;28;20060;-75
2021/06/06 14:20:25;;;;;;;7.90;3.25;;;;;;;;;;5053905;28;20103;-75
2021/06/06 14:22:53;;;;;;;9.88;3.50;;;;;;;;;;5054198;28;20123;-75
2021/06/06 14:25:21;;;;;;;7.72;2.70;;;;;;;;;;5060408;28;20404;-75
2021/06/06 14:27:47;;;;;;;6.97;2.50;;;;;;;;;;5059209;28;20098;-75
2021/06/06 14:30:16;;;;;;;7.43;3.10;;;;;;;;;;5062389;28;20060;-75